This is the latest recevied weather packets stored in our database for station/object DH2PG-6. If no packets are shown the sender has not sent any weather packets the latest 10 day(s).
| Time | Temp. | Humidity | Pressure | Rain* | Wind** | Luminosity | Snow |
|---|---|---|---|---|---|---|---|
| 1787871021 | 18.89° C | 83% | 1008.4 hPa | 0 mm | - | - | - |
| 1787870779 | 18.89° C | 82% | 1008.4 hPa | 0 mm | - | - | - |
| 1787870720 | 18.89° C | 82% | 1008.4 hPa | 0 mm | - | - | - |
| 1787870120 | 18.89° C | 82% | 1008.3 hPa | 0.51 mm | - | - | - |
| 1787869519 | 18.89° C | 81% | 1008.1 hPa | 0.51 mm | - | - | - |
| 1787868919 | 18.89° C | 82% | 1008 hPa | 1.02 mm | - | - | - |
| 1787868619 | 18.89° C | 82% | 1008.1 hPa | 1.02 mm | - | - | - |
| 1787868318 | 19.44° C | 81% | 1008.2 hPa | 1.02 mm | - | - | - |
| 1787867718 | 19.44° C | 81% | 1008.9 hPa | 1.02 mm | - | - | - |
| 1787867417 | 19.44° C | 80% | 1008.9 hPa | 1.02 mm | - | - | - |
| 1787867117 | 19.44° C | 80% | 1009.1 hPa | 1.02 mm | - | - | - |
| 1787866516 | 20° C | 77% | 1009.3 hPa | 0.51 mm | - | - | - |
| 1787866216 | 20.56° C | 75% | 1009.3 hPa | 0.51 mm | - | - | - |
| 1787865916 | 21.11° C | 73% | 1009 hPa | 0.51 mm | - | - | - |
| 1787865315 | 22.78° C | 67% | 1008.5 hPa | 0 mm | - | - | - |
| 1787864715 | 23.33° C | 64% | 1008.1 hPa | 0 mm | - | - | - |
| 1787863814 | 23.33° C | 62% | 1007.4 hPa | 0 mm | - | - | - |
| 1787863514 | 23.33° C | 62% | 1007.2 hPa | 0 mm | - | - | - |
| 1787862913 | 23.89° C | 61% | 1007.2 hPa | 0 mm | - | - | - |
| 1787862613 | 23.89° C | 61% | 1007.3 hPa | 0 mm | - | - | - |
| 1787862313 | 23.89° C | 59% | 1007.2 hPa | 0 mm | - | - | - |
| 1787861412 | 24.44° C | 59% | 1007.3 hPa | 0 mm | - | - | - |
| 1787860511 | 24.44° C | 57% | 1007.1 hPa | 0 mm | - | - | - |
| 1787860210 | 24.44° C | 57% | 1007.1 hPa | 0 mm | - | - | - |
| 1787859310 | 24.44° C | 56% | 1007.2 hPa | 0 mm | - | - | - |
* Rain latest hour (hover to see other rain measurements)
** Current wind speed in m/s (hover to see current wind gust speed)